KBIE/BIE METAR and TAF weather

Enter ICAO airport designator
Station Type Date Time Source
KBIE METAR 2021/09/25 11:15 UTC NOAA

KBIE 251115Z AUTO 00000KT 10SM CLR 05/04 A3016 RMK AO2 T00460042


Station Type Date Time Source
KBIE Decoded METAR 2021/09/25 11:15 UTC NOAA

Beatrice Municipal, NE, United States (KBIE) 40-18N 096-45W
Sep 25, 2021 - 07:15 AM EDT / 2021.09.25 1115 UTC
Wind: Calm:0
Visibility: 10 mile(s):0
Sky conditions: clear
Temperature: 40.3 F (4.6 C)
Dew Point: 39.6 F (4.2 C)
Relative Humidity: 97%
Pressure (altimeter): 30.16 in. Hg (1021 hPa)
ob: KBIE 251115Z AUTO 00000KT 10SM CLR 05/04 A3016 RMK AO2 T00460042
cycle: 11

Station Type Date Time Source
KBIE TAF UTC NOAA

Error!

Example: see airport list